Time;durP1;ratioP1;P1;durP2;ratioP2;P2;SDS_P1;SDS_P2;PMS_P1;PMS_P2;Temp;Humidity;BMP_temperature;BMP_pressure;BME280_temperature;BME280_humidity;BME280_pressure;Samples;Min_cycle;Max_cycle;Signal;HPM_P1;HPM_P2
2022/11/11 00:01:39;;;;;;;0.93;0.52;;;24.40;54.70;;;;;;4047273;29;20198;-54
2022/11/11 00:04:01;;;;;;;2.10;0.57;;;24.40;54.80;;;;;;4050115;29;20071;-56
2022/11/11 00:06:24;;;;;;;1.00;0.55;;;24.40;54.80;;;;;;4047675;29;20036;-53
2022/11/11 00:08:48;;;;;;;1.48;0.50;;;24.50;54.80;;;;;;4046712;29;20289;-57
2022/11/11 00:11:12;;;;;;;0.63;0.60;;;24.50;54.80;;;;;;4047546;29;20036;-58
2022/11/11 00:13:37;;;;;;;1.95;0.60;;;24.60;54.90;;;;;;4050100;29;20067;-55
2022/11/11 00:16:17;;;;;;;2.45;0.80;;;24.60;54.90;;;;;;4047225;29;20044;-54
2022/11/11 00:26:44;;;;;;;1.75;0.98;;;24.70;54.70;;;;;;4049965;28;20224;-56
2022/11/11 00:29:07;;;;;;;2.60;0.88;;;24.80;54.70;;;;;;4050073;29;20055;-56
2022/11/11 00:31:29;;;;;;;0.50;0.50;;;24.80;54.70;;;;;;4042871;29;20099;-57
2022/11/11 00:33:53;;;;;;;1.95;0.80;;;24.80;54.70;;;;;;4045414;29;20075;-58
2022/11/11 00:36:15;;;;;;;4.32;1.08;;;24.90;54.60;;;;;;4052986;29;20426;-59
2022/11/11 00:38:48;;;;;;;2.90;1.15;;;24.90;54.60;;;;;;4047625;28;20040;-52
2022/11/11 00:41:15;;;;;;;3.33;1.40;;;25.00;54.80;;;;;;4048183;28;20080;-57
2022/11/11 00:43:38;;;;;;;2.80;1.20;;;25.00;55.30;;;;;;4054353;29;20040;-61
2022/11/11 00:51:22;;;;;;;8.40;1.70;;;25.20;55.10;;;;;;4041857;29;20044;-59
2022/11/11 00:53:44;;;;;;;3.72;1.40;;;25.30;55.10;;;;;;4051304;29;20051;-62
2022/11/11 00:56:07;;;;;;;11.55;1.77;;;25.30;55.20;;;;;;4043897;29;20066;-56
2022/11/11 00:58:30;;;;;;;4.63;1.77;;;25.30;55.00;;;;;;4048282;29;20049;-61
2022/11/11 01:00:52;;;;;;;6.63;1.45;;;25.30;54.80;;;;;;4048523;29;20103;-62
2022/11/11 01:03:15;;;;;;;4.38;1.58;;;25.30;54.90;;;;;;4047368;29;20029;-61
2022/11/11 01:05:38;;;;;;;4.50;1.57;;;25.40;54.90;;;;;;4047747;29;20489;-62
2022/11/11 01:08:01;;;;;;;3.23;1.53;;;25.40;54.90;;;;;;4045169;29;20773;-61
2022/11/11 01:10:40;;;;;;;4.82;1.60;;;25.40;54.90;;;;;;4050611;29;20044;-62
2022/11/11 01:13:12;;;;;;;2.97;1.00;;;25.40;54.80;;;;;;4044735;29;20103;-61
2022/11/11 01:15:35;;;;;;;3.05;1.40;;;25.50;54.90;;;;;;4045323;29;20520;-61
2022/11/11 01:17:57;;;;;;;6.18;1.40;;;25.50;54.90;;;;;;4049015;29;20037;-60
2022/11/11 01:20:20;;;;;;;2.85;1.30;;;25.60;54.90;;;;;;4046799;29;20426;-62
2022/11/11 01:22:42;;;;;;;1.60;1.10;;;25.50;54.70;;;;;;4050021;29;20095;-61
2022/11/11 01:25:05;;;;;;;2.20;1.23;;;25.60;54.70;;;;;;4044801;29;20416;-61
2022/11/11 01:27:28;;;;;;;2.43;1.07;;;25.60;54.60;;;;;;4043963;29;20075;-59
2022/11/11 01:29:50;;;;;;;1.67;0.93;;;25.70;54.60;;;;;;4043601;29;20408;-60
2022/11/11 01:32:13;;;;;;;2.38;1.20;;;25.60;54.50;;;;;;4047651;29;20567;-59
2022/11/11 01:34:35;;;;;;;11.35;1.33;;;25.70;54.60;;;;;;4043674;29;20637;-59
2022/11/11 01:36:58;;;;;;;4.70;0.90;;;25.70;54.60;;;;;;4047070;29;20036;-60
2022/11/11 01:39:20;;;;;;;3.22;1.30;;;25.70;54.30;;;;;;4044505;29;20136;-62
2022/11/11 01:41:43;;;;;;;6.15;1.38;;;25.80;54.10;;;;;;4040744;29;20057;-62
2022/11/11 01:44:11;;;;;;;2.25;1.20;;;25.70;53.90;;;;;;4041731;29;20472;-63
2022/11/11 01:46:38;;;;;;;2.08;1.17;;;25.80;54.10;;;;;;4044846;29;20044;-66
2022/11/11 01:49:18;;;;;;;11.48;1.30;;;25.80;54.10;;;;;;4043678;29;20052;-63
2022/11/11 01:51:43;;;;;;;1.98;0.90;;;25.80;54.00;;;;;;4040456;29;20043;-62
2022/11/11 01:54:21;;;;;;;1.73;1.08;;;25.90;54.00;;;;;;4047204;29;20411;-60
2022/11/11 01:56:48;;;;;;;3.25;1.30;;;25.90;54.00;;;;;;4044445;29;20480;-63
2022/11/11 01:59:15;;;;;;;1.45;0.88;;;26.00;53.90;;;;;;4044237;29;20523;-62
2022/11/11 02:01:39;;;;;;;2.38;1.00;;;26.00;53.90;;;;;;4046424;28;20762;-60
2022/11/11 02:06:45;;;;;;;1.85;0.70;;;26.00;53.80;;;;;;4045724;29;20040;-61
2022/11/11 02:09:08;;;;;;;3.00;1.00;;;26.10;53.90;;;;;;4042375;29;20168;-59
2022/11/11 02:16:54;;;;;;;2.13;1.35;;;26.20;53.90;;;;;;4045119;29;20043;-61
2022/11/11 02:19:22;;;;;;;1.90;1.08;;;26.20;53.80;;;;;;4043477;29;20040;-61
2022/11/11 02:21:57;;;;;;;2.35;1.20;;;26.20;53.80;;;;;;4044868;29;20040;-58
2022/11/11 02:24:22;;;;;;;3.83;1.17;;;26.20;54.10;;;;;;4050293;29;20163;-58
2022/11/11 02:26:45;;;;;;;4.68;1.17;;;26.30;54.20;;;;;;4051276;29;20203;-59
2022/11/11 02:29:18;;;;;;;3.45;1.13;;;26.40;54.50;;;;;;4047157;29;20072;-58
2022/11/11 02:31:40;;;;;;;2.80;1.33;;;26.40;54.30;;;;;;4050214;29;20040;-61
2022/11/11 02:34:03;;;;;;;2.47;1.42;;;26.50;54.20;;;;;;4043915;29;20091;-59
2022/11/11 02:36:26;;;;;;;4.43;1.27;;;26.50;54.30;;;;;;4046487;29;20158;-59
2022/11/11 02:38:49;;;;;;;2.13;1.53;;;26.60;54.40;;;;;;4056027;29;20047;-59
2022/11/11 02:43:53;;;;;;;3.15;1.67;;;26.70;54.30;;;;;;4044572;29;20423;-56
2022/11/11 02:46:15;;;;;;;;;;;26.60;53.20;;;;;;4052161;29;20549;-55
2022/11/11 02:48:37;;;;;;;3.03;1.92;;;26.60;52.50;;;;;;4050326;28;19915;-55
2022/11/11 02:51:00;;;;;;;8.05;1.85;;;26.60;51.90;;;;;;4048262;29;20051;-55
2022/11/11 02:53:23;;;;;;;3.65;1.80;;;26.60;52.40;;;;;;4055968;29;20039;-56
2022/11/11 02:55:46;;;;;;;5.53;2.00;;;26.60;52.90;;;;;;4052983;29;20052;-57
2022/11/11 02:58:09;;;;;;;5.60;2.00;;;26.60;52.90;;;;;;4047849;29;20032;-59
2022/11/11 03:00:31;;;;;;;6.40;2.10;;;26.60;53.60;;;;;;4049804;29;20392;-59
2022/11/11 03:02:54;;;;;;;4.90;2.13;;;26.60;53.80;;;;;;4061668;29;21049;-58
2022/11/11 03:05:16;;;;;;;7.13;1.75;;;26.70;54.00;;;;;;4045447;29;20620;-58
2022/11/11 03:07:39;;;;;;;3.00;1.65;;;26.70;54.40;;;;;;4052560;28;20155;-62
2022/11/11 03:10:01;;;;;;;3.60;1.80;;;26.80;54.50;;;;;;4048861;29;20526;-64
2022/11/11 03:12:24;;;;;;;4.10;1.52;;;26.80;54.70;;;;;;4046028;29;20055;-60
2022/11/11 03:14:47;;;;;;;3.63;1.50;;;26.90;54.50;;;;;;4049655;29;20084;-59
2022/11/11 03:19:50;;;;;;;5.63;1.42;;;26.90;54.80;;;;;;4045146;29;20038;-59
2022/11/11 03:22:13;;;;;;;1.92;1.40;;;27.00;55.00;;;;;;4047357;29;20482;-62
2022/11/11 03:27:16;;;;;;;2.50;1.27;;;27.10;54.60;;;;;;4048314;29;20448;-59
2022/11/11 03:29:39;;;;;;;5.20;2.00;;;27.00;53.80;;;;;;4053286;29;20131;-59
2022/11/11 03:32:01;;;;;;;4.15;1.50;;;27.00;53.20;;;;;;4048534;29;20040;-60
2022/11/11 03:34:24;;;;;;;4.22;1.60;;;27.00;53.20;;;;;;4046439;29;20044;-56
2022/11/11 03:39:27;;;;;;;3.20;1.70;;;27.10;53.00;;;;;;4044647;29;20100;-60
2022/11/11 03:41:50;;;;;;;4.57;2.07;;;27.10;53.10;;;;;;4050358;29;20051;-57
2022/11/11 03:44:12;;;;;;;3.55;2.00;;;27.10;53.30;;;;;;4052474;29;20295;-58
2022/11/11 03:46:35;;;;;;;3.75;1.80;;;27.20;53.30;;;;;;4046161;29;20049;-58
2022/11/11 03:48:57;;;;;;;6.50;1.70;;;27.20;53.40;;;;;;4047475;29;20043;-57
2022/11/11 03:51:20;;;;;;;2.45;1.40;;;27.20;53.50;;;;;;4050813;28;20045;-58
2022/11/11 03:53:42;;;;;;;3.03;1.75;;;27.20;53.50;;;;;;4043418;29;20049;-57
2022/11/11 03:56:05;;;;;;;2.85;1.70;;;27.20;53.60;;;;;;4050517;29;20051;-59
2022/11/11 03:58:28;;;;;;;4.25;1.65;;;27.20;53.50;;;;;;4049755;29;20119;-52
2022/11/11 04:00:50;;;;;;;2.17;1.38;;;27.30;53.60;;;;;;4045763;29;20051;-56
2022/11/11 04:10:21;;;;;;;6.60;1.70;;;27.20;53.60;;;;;;4047853;29;20052;-58
2022/11/11 04:11:41;;;;;;;3.55;1.63;;;27.20;53.60;;;;;;4043936;29;20036;-57
2022/11/11 04:16:48;;;;;;;3.58;1.50;;;27.30;53.40;;;;;;4046059;29;20036;-57
2022/11/11 04:21:51;;;;;;;2.63;1.30;;;27.30;53.10;;;;;;4044855;29;20058;-58
2022/11/11 04:27:02;;;;;;;2.72;1.08;;;27.40;53.30;;;;;;4041849;29;20334;-58
2022/11/11 04:29:28;;;;;;;3.28;1.38;;;27.40;53.40;;;;;;4050280;29;20048;-58
2022/11/11 04:34:31;;;;;;;1.77;0.95;;;27.50;53.80;;;;;;4052897;29;20639;-57
2022/11/11 04:36:53;;;;;;;1.55;0.90;;;27.50;53.80;;;;;;4050916;29;20048;-58
2022/11/11 04:41:57;;;;;;;4.30;1.08;;;27.60;53.80;;;;;;4051509;29;20078;-58
2022/11/11 04:47:00;;;;;;;1.88;1.08;;;27.60;53.90;;;;;;4049655;29;20094;-56
2022/11/11 04:49:22;;;;;;;2.70;1.20;;;27.60;53.90;;;;;;4051973;29;20040;-57
2022/11/11 04:54:25;;;;;;;3.35;0.90;;;27.70;54.10;;;;;;4049272;29;20056;-57
2022/11/11 04:56:50;;;;;;;1.27;0.90;;;27.70;54.10;;;;;;4052022;29;21840;-55
2022/11/11 04:59:15;;;;;;;1.55;0.98;;;27.70;54.10;;;;;;4046940;29;20044;-57
2022/11/11 05:04:18;;;;;;;0.88;0.73;;;27.70;54.20;;;;;;4051667;29;20127;-57
2022/11/11 05:09:21;;;;;;;1.80;0.80;;;27.70;54.20;;;;;;4045395;29;20099;-58
2022/11/11 05:11:44;;;;;;;1.40;0.95;;;27.70;55.00;;;;;;4046834;29;20493;-55
2022/11/11 05:22:21;;;;;;;1.48;0.90;;;27.80;54.50;;;;;;4045936;29;20048;-58
2022/11/11 05:27:25;;;;;;;1.38;1.00;;;27.80;54.60;;;;;;4045889;29;20051;-53
2022/11/11 05:29:48;;;;;;;1.38;0.95;;;27.80;54.60;;;;;;4046727;29;20040;-56
2022/11/11 05:32:15;;;;;;;1.40;0.88;;;27.80;54.70;;;;;;4047542;29;20171;-57
2022/11/11 05:34:37;;;;;;;3.42;0.90;;;27.90;54.70;;;;;;4051710;29;20448;-57
2022/11/11 05:37:00;;;;;;;1.48;0.90;;;27.80;54.70;;;;;;4040161;29;20066;-58
2022/11/11 05:39:22;;;;;;;1.23;1.00;;;27.80;54.80;;;;;;4048159;29;20048;-57
2022/11/11 05:41:45;;;;;;;2.13;1.10;;;27.90;54.90;;;;;;4043680;29;20035;-58
2022/11/11 05:44:07;;;;;;;0.73;0.63;;;27.90;54.90;;;;;;4038674;29;20053;-56
2022/11/11 05:46:30;;;;;;;1.23;1.00;;;27.90;54.90;;;;;;4042256;29;20041;-57
2022/11/11 05:51:33;;;;;;;1.45;1.10;;;27.90;55.00;;;;;;4045286;29;20040;-57
2022/11/11 05:53:56;;;;;;;1.88;1.33;;;27.90;55.10;;;;;;4042656;29;20048;-58
2022/11/11 05:56:18;;;;;;;;;;;27.90;55.10;;;;;;4047246;29;20052;-51
2022/11/11 05:58:41;;;;;;;2.13;1.63;;;27.90;55.10;;;;;;4043310;29;19915;-56
2022/11/11 06:01:04;;;;;;;3.83;2.00;;;27.90;54.30;;;;;;4053445;29;20154;-56
2022/11/11 06:03:27;;;;;;;4.25;2.17;;;27.90;53.90;;;;;;4045341;29;20043;-57
2022/11/11 06:05:57;;;;;;;3.38;1.80;;;27.80;54.50;;;;;;4134952;27;20441;-58
2022/11/11 06:08:20;;;;;;;3.75;1.88;;;27.80;54.80;;;;;;4125895;28;20044;-56
2022/11/11 06:10:43;;;;;;;4.95;1.85;;;27.90;54.70;;;;;;4120915;28;20100;-57
2022/11/11 06:13:09;;;;;;;2.15;1.55;;;27.90;54.80;;;;;;4123465;28;20405;-60
2022/11/11 06:15:32;;;;;;;7.88;2.10;;;27.90;54.90;;;;;;4125037;28;20509;-56
2022/11/11 06:17:54;;;;;;;;;;;27.80;54.60;;;;;;4123681;28;20337;-51
2022/11/11 06:20:17;;;;;;;4.40;2.05;;;27.90;54.60;;;;;;4121135;28;19910;-49
2022/11/11 06:22:57;;;;;;;3.75;2.30;;;27.80;54.30;;;;;;4120117;28;20050;-46
2022/11/11 06:28:01;;;;;;;5.47;2.25;;;27.70;54.20;;;;;;4152464;28;20025;-55
2022/11/11 06:30:23;;;;;;;4.32;2.35;;;27.80;54.20;;;;;;4151030;28;20081;-51
2022/11/11 06:32:46;;;;;;;6.53;2.00;;;27.70;54.20;;;;;;4145791;28;20408;-57
2022/11/11 06:35:08;;;;;;;4.03;2.60;;;27.70;54.20;;;;;;4142500;28;20045;-55
2022/11/11 06:37:31;;;;;;;5.50;2.78;;;27.60;54.10;;;;;;4128887;28;20140;-50
2022/11/11 06:39:53;;;;;;;4.63;2.63;;;27.60;54.10;;;;;;4144940;28;20042;-52
2022/11/11 06:42:16;;;;;;;5.90;2.15;;;27.60;54.20;;;;;;4144952;28;20391;-54
2022/11/11 06:44:38;;;;;;;3.33;1.90;;;27.50;54.20;;;;;;4145145;28;20056;-50
2022/11/11 06:47:01;;;;;;;2.63;1.88;;;27.50;54.20;;;;;;4138871;28;20045;-53
2022/11/11 06:49:23;;;;;;;2.70;1.77;;;27.50;54.30;;;;;;4142604;28;20041;-56
2022/11/11 06:51:48;;;;;;;5.40;2.33;;;27.50;54.50;;;;;;4140780;28;20041;-53
2022/11/11 06:54:10;;;;;;;3.63;2.45;;;27.50;54.70;;;;;;4139189;28;20086;-53
2022/11/11 06:56:33;;;;;;;3.67;2.42;;;27.40;55.00;;;;;;4138102;28;20045;-52
2022/11/11 06:58:55;;;;;;;4.32;2.42;;;27.40;55.30;;;;;;4173833;28;20049;-51
2022/11/11 07:01:18;;;;;;;4.65;2.80;;;27.40;55.50;;;;;;4132631;28;20034;-47
2022/11/11 07:03:40;;;;;;;4.78;2.67;;;27.40;55.60;;;;;;4132007;28;20306;-50
2022/11/11 07:06:04;;;;;;;4.30;2.65;;;27.40;55.60;;;;;;4134401;28;20041;-48
2022/11/11 07:08:27;;;;;;;3.15;2.17;;;27.40;55.60;;;;;;4125398;28;20045;-51
2022/11/11 07:10:49;;;;;;;5.03;2.47;;;27.40;55.60;;;;;;4134940;28;20125;-50
2022/11/11 07:13:13;;;;;;;4.40;2.60;;;27.40;55.60;;;;;;4139027;28;20293;-50
2022/11/11 07:15:36;;;;;;;3.80;2.38;;;27.40;55.60;;;;;;4144268;28;20144;-51
2022/11/11 07:17:59;;;;;;;4.60;2.30;;;27.30;55.50;;;;;;4137395;28;20035;-52
2022/11/11 07:20:22;;;;;;;3.72;2.22;;;27.30;55.50;;;;;;4126304;28;20038;-52
2022/11/11 07:22:44;;;;;;;4.13;2.30;;;27.30;55.50;;;;;;4120787;28;20051;-50
2022/11/11 07:25:07;;;;;;;3.13;2.15;;;27.30;55.60;;;;;;4114728;28;20058;-51
2022/11/11 07:27:30;;;;;;;3.88;2.30;;;27.30;55.60;;;;;;4119250;28;20060;-53
2022/11/11 07:29:52;;;;;;;3.13;2.22;;;27.30;55.60;;;;;;4119082;28;20496;-54
2022/11/11 07:32:16;;;;;;;3.42;2.42;;;27.30;55.70;;;;;;4116674;28;20037;-54
2022/11/11 07:34:38;;;;;;;3.88;2.20;;;27.20;55.60;;;;;;4114739;28;20042;-53
2022/11/11 07:37:01;;;;;;;3.30;2.40;;;27.20;55.60;;;;;;4121650;28;20068;-53
2022/11/11 07:39:23;;;;;;;3.55;2.05;;;27.20;55.60;;;;;;4106033;28;20127;-53
2022/11/11 07:41:46;;;;;;;3.40;2.00;;;27.20;55.60;;;;;;4109909;28;20805;-53
2022/11/11 07:44:08;;;;;;;5.97;2.30;;;27.20;55.60;;;;;;4124436;28;20050;-57
2022/11/11 07:46:31;;;;;;;3.75;2.10;;;27.20;55.70;;;;;;4126893;28;20076;-53
2022/11/11 07:48:53;;;;;;;4.25;2.35;;;27.20;55.70;;;;;;4123784;28;20609;-51
2022/11/11 07:51:16;;;;;;;3.63;1.90;;;27.10;55.70;;;;;;4104039;28;20050;-50
2022/11/11 07:53:38;;;;;;;3.63;1.90;;;27.10;55.60;;;;;;4122933;28;20102;-53
2022/11/11 07:56:01;;;;;;;4.93;1.80;;;27.10;55.60;;;;;;4111537;28;20057;-52
2022/11/11 07:58:23;;;;;;;3.20;1.77;;;27.10;55.60;;;;;;4116784;28;20068;-52
2022/11/11 08:00:46;;;;;;;2.30;1.65;;;27.10;55.60;;;;;;4118843;28;20391;-50
2022/11/11 08:03:09;;;;;;;2.28;1.58;;;27.00;55.50;;;;;;4112420;28;20470;-53
2022/11/11 08:05:31;;;;;;;3.75;1.80;;;27.10;55.60;;;;;;4112588;28;20486;-47
2022/11/11 08:07:54;;;;;;;2.45;1.52;;;27.00;55.50;;;;;;4107319;28;20034;-53
2022/11/11 08:10:17;;;;;;;2.55;1.70;;;27.00;55.50;;;;;;4118946;28;20049;-52
2022/11/11 08:15:20;;;;;;;6.68;1.63;;;27.00;55.60;;;;;;4117744;28;20042;-52
2022/11/11 08:17:43;;;;;;;3.05;1.55;;;27.00;55.60;;;;;;4115219;28;20157;-50
2022/11/11 08:20:08;;;;;;;4.05;1.38;;;26.90;55.60;;;;;;4111837;28;20038;-51
2022/11/11 08:22:39;;;;;;;2.13;1.33;;;26.90;55.60;;;;;;4120192;28;20481;-48
2022/11/11 08:25:02;;;;;;;2.70;1.30;;;26.90;55.60;;;;;;4121627;28;20515;-50
2022/11/11 08:27:25;;;;;;;3.60;1.48;;;26.90;55.60;;;;;;4118730;28;20038;-48
2022/11/11 08:29:47;;;;;;;1.85;1.40;;;26.90;55.60;;;;;;4100885;28;20683;-50
2022/11/11 08:32:10;;;;;;;1.88;1.38;;;26.90;55.70;;;;;;4106388;28;20038;-48
2022/11/11 08:34:33;;;;;;;2.60;1.23;;;26.80;55.60;;;;;;4115662;28;20049;-51
2022/11/11 08:36:55;;;;;;;1.27;1.10;;;26.80;55.70;;;;;;4110809;28;20878;-52
2022/11/11 08:39:18;;;;;;;2.22;1.38;;;26.80;55.70;;;;;;4115818;28;20517;-52
2022/11/11 08:41:40;;;;;;;2.30;1.30;;;26.80;55.70;;;;;;4120716;28;21022;-51
2022/11/11 08:44:03;;;;;;;2.45;1.38;;;26.80;55.80;;;;;;4118505;28;20026;-48
2022/11/11 08:46:26;;;;;;;2.88;1.20;;;26.70;55.70;;;;;;4120141;28;20070;-52
2022/11/11 08:48:49;;;;;;;1.15;0.95;;;26.70;55.70;;;;;;4108709;28;20041;-54
2022/11/11 08:51:12;;;;;;;1.85;1.20;;;26.70;55.80;;;;;;4120799;28;20065;-51
2022/11/11 08:53:34;;;;;;;2.38;1.10;;;26.70;55.80;;;;;;4104679;28;20035;-53
2022/11/11 08:55:57;;;;;;;1.90;1.10;;;26.70;55.80;;;;;;4114472;28;20405;-49
2022/11/11 08:58:20;;;;;;;2.03;1.40;;;26.70;55.80;;;;;;4118538;28;20684;-51
2022/11/11 09:00:42;;;;;;;1.58;1.33;;;26.60;55.80;;;;;;4115923;28;20064;-50
2022/11/11 09:03:08;;;;;;;1.75;0.90;;;26.60;55.80;;;;;;4121901;28;20042;-54
2022/11/11 09:05:31;;;;;;;3.65;1.30;;;26.60;55.70;;;;;;4118095;28;20058;-55
2022/11/11 09:07:54;;;;;;;2.58;1.45;;;26.60;55.80;;;;;;4118077;28;20038;-50
2022/11/11 09:10:17;;;;;;;1.70;1.13;;;26.60;55.80;;;;;;4112500;28;20043;-55
2022/11/11 09:12:39;;;;;;;2.28;1.48;;;26.60;55.80;;;;;;4119337;28;20570;-51
2022/11/11 09:15:02;;;;;;;2.20;1.27;;;26.60;55.90;;;;;;4118363;28;20049;-51
2022/11/11 09:17:25;;;;;;;2.72;1.20;;;26.60;55.90;;;;;;4114276;28;20034;-52
2022/11/11 09:19:47;;;;;;;2.72;1.52;;;26.50;55.80;;;;;;4118228;28;20041;-51
2022/11/11 09:22:10;;;;;;;2.10;1.40;;;26.50;55.90;;;;;;4117153;28;20041;-52
2022/11/11 09:24:32;;;;;;;2.92;1.27;;;26.50;55.90;;;;;;4123456;28;20115;-54
2022/11/11 09:26:55;;;;;;;2.05;1.25;;;26.50;55.90;;;;;;4113989;28;20057;-53
2022/11/11 09:29:18;;;;;;;3.35;1.48;;;26.50;55.90;;;;;;4121219;28;20047;-52
2022/11/11 09:31:41;;;;;;;2.60;1.58;;;26.50;56.00;;;;;;4122819;28;20042;-52
2022/11/11 09:34:05;;;;;;;2.17;1.50;;;26.50;56.40;;;;;;4123843;28;20037;-52
2022/11/11 09:36:28;;;;;;;1.80;1.30;;;26.50;56.00;;;;;;4122886;28;20080;-53
2022/11/11 09:38:50;;;;;;;2.45;1.30;;;26.50;56.00;;;;;;4120648;28;20431;-54
2022/11/11 09:41:20;;;;;;;2.10;1.27;;;26.40;55.90;;;;;;4120845;28;20046;-52
2022/11/11 09:43:51;;;;;;;1.58;1.23;;;26.40;56.00;;;;;;4117691;28;20049;-51
2022/11/11 09:46:39;;;;;;;2.08;1.30;;;26.40;56.00;;;;;;4115891;28;20054;-47
2022/11/11 09:49:24;;;;;;;2.22;1.40;;;26.40;56.00;;;;;;4138525;28;20113;-49
2022/11/11 09:51:49;;;;;;;2.17;1.30;;;26.40;56.10;;;;;;4125817;28;20042;-54
2022/11/11 09:54:19;;;;;;;1.30;1.20;;;26.40;56.10;;;;;;4121137;28;20042;-50
2022/11/11 09:56:42;;;;;;;1.73;1.33;;;26.40;56.10;;;;;;4121044;28;20046;-52
2022/11/11 09:59:20;;;;;;;1.30;1.00;;;26.40;56.10;;;;;;4122577;28;20034;-51
2022/11/11 10:01:52;;;;;;;1.00;0.90;;;26.30;56.10;;;;;;4119619;28;20572;-51
2022/11/11 10:04:36;;;;;;;1.88;1.40;;;26.30;56.10;;;;;;4117848;28;20057;-48
2022/11/11 10:07:08;;;;;;;2.55;1.35;;;26.30;56.10;;;;;;4124246;28;21432;-48
2022/11/11 10:09:44;;;;;;;2.33;1.42;;;26.30;56.20;;;;;;4117912;28;20046;-49
2022/11/11 10:12:14;;;;;;;1.38;1.08;;;26.30;56.20;;;;;;4106065;28;20039;-49
2022/11/11 10:14:41;;;;;;;1.35;1.10;;;26.30;56.20;;;;;;4118717;28;20046;-47
2022/11/11 10:17:13;;;;;;;2.85;1.48;;;26.30;56.20;;;;;;4112605;28;20160;-51
2022/11/11 10:19:38;;;;;;;2.35;1.33;;;26.30;56.30;;;;;;4118452;28;20053;-50
2022/11/11 10:22:19;;;;;;;1.92;1.25;;;26.20;56.20;;;;;;4121588;28;20037;-51
2022/11/11 10:24:45;;;;;;;2.40;1.40;;;26.20;56.20;;;;;;4124415;28;20046;-53
2022/11/11 10:27:19;;;;;;;3.25;1.17;;;26.20;56.30;;;;;;4116507;28;20049;-48
2022/11/11 10:29:43;;;;;;;3.22;1.65;;;26.20;56.30;;;;;;4116057;28;20544;-52
2022/11/11 10:32:26;;;;;;;2.33;1.42;;;26.20;56.30;;;;;;4115799;28;20034;-50
2022/11/11 10:34:49;;;;;;;2.85;1.20;;;26.20;56.30;;;;;;4118007;28;20046;-52
2022/11/11 10:37:41;;;;;;;2.17;1.27;;;26.20;56.30;;;;;;4113043;28;20212;-48
2022/11/11 10:40:23;;;;;;;1.83;1.10;;;26.20;56.40;;;;;;4119469;28;20045;-53
2022/11/11 10:42:45;;;;;;;1.65;1.17;;;26.20;56.40;;;;;;4118368;28;20442;-52
2022/11/11 10:45:23;;;;;;;1.95;1.30;;;26.20;56.40;;;;;;4129440;28;20182;-51
2022/11/11 10:48:09;;;;;;;2.33;1.20;;;26.20;56.40;;;;;;4122971;28;20667;-51
2022/11/11 10:50:45;;;;;;;1.85;1.35;;;26.10;56.40;;;;;;4120323;28;20038;-51
2022/11/11 10:53:31;;;;;;;3.92;1.63;;;26.10;56.40;;;;;;4122232;28;20053;-51
2022/11/11 10:56:13;;;;;;;2.30;1.23;;;26.10;56.40;;;;;;4122884;28;20138;-51
2022/11/11 10:58:49;;;;;;;2.75;1.55;;;26.10;56.40;;;;;;4110386;28;20080;-52
2022/11/11 11:01:17;;;;;;;2.55;1.55;;;26.10;56.40;;;;;;4122998;28;20428;-47
2022/11/11 11:04:01;;;;;;;2.22;1.15;;;26.10;56.40;;;;;;4119115;28;20031;-50
2022/11/11 11:06:31;;;;;;;2.10;1.15;;;26.10;56.40;;;;;;4117458;28;20054;-49
2022/11/11 11:09:28;;;;;;;2.28;1.30;;;26.00;56.40;;;;;;4121567;28;20160;-50
2022/11/11 11:12:20;;;;;;;1.90;1.30;;;26.00;56.40;;;;;;4114160;28;20030;-49
2022/11/11 11:14:51;;;;;;;1.90;1.20;;;26.00;56.40;;;;;;4122681;28;20046;-53
2022/11/11 11:17:36;;;;;;;3.05;1.50;;;26.00;56.50;;;;;;4120802;28;20046;-52
2022/11/11 11:20:07;;;;;;;;;;;26.00;56.40;;;;;;4116433;28;20042;-48
2022/11/11 11:22:51;;;;;;;1.88;1.27;;;26.00;56.50;;;;;;4117364;28;19913;-49
2022/11/11 11:25:14;;;;;;;3.33;1.50;;;26.00;56.50;;;;;;4124839;28;20099;-49
2022/11/11 11:27:37;;;;;;;1.67;1.30;;;25.90;56.40;;;;;;4116979;28;20127;-48
2022/11/11 11:30:11;;;;;;;1.88;1.42;;;26.00;56.50;;;;;;4121529;28;20034;-49
2022/11/11 11:32:33;;;;;;;;;;;25.90;56.50;;;;;;4119253;28;20043;-51
2022/11/11 11:34:57;;;;;;;1.83;1.35;;;25.90;56.50;;;;;;4140957;28;19909;-52
2022/11/11 11:37:22;;;;;;;1.85;1.30;;;25.90;56.50;;;;;;4129335;28;20042;-51
2022/11/11 11:39:45;;;;;;;1.95;1.55;;;25.90;56.50;;;;;;4122087;28;20038;-53
2022/11/11 11:42:09;;;;;;;3.13;1.50;;;25.90;56.50;;;;;;4128432;28;20035;-51
2022/11/11 11:44:39;;;;;;;2.17;1.50;;;25.90;56.50;;;;;;4123470;28;20294;-48
2022/11/11 11:47:19;;;;;;;2.25;1.60;;;25.80;56.50;;;;;;4124512;28;20034;-49
2022/11/11 11:50:00;;;;;;;3.28;1.70;;;25.90;56.60;;;;;;4125502;28;20136;-49
2022/11/11 11:52:57;;;;;;;1.92;1.38;;;25.80;56.60;;;;;;4127798;28;20038;-46
2022/11/11 11:55:30;;;;;;;1.95;1.40;;;25.80;56.60;;;;;;4125810;28;20053;-50
2022/11/11 11:58:14;;;;;;;1.55;1.10;;;25.80;56.60;;;;;;4124742;28;20100;-47
2022/11/11 12:00:50;;;;;;;1.83;1.40;;;25.80;56.60;;;;;;4123079;28;20141;-46
2022/11/11 12:03:34;;;;;;;2.22;1.38;;;25.70;56.60;;;;;;4120166;28;20191;-50
2022/11/11 12:06:30;;;;;;;2.72;1.40;;;25.70;56.60;;;;;;4115164;28;20115;-47
2022/11/11 12:09:09;;;;;;;2.13;1.30;;;25.70;56.70;;;;;;4116264;28;20038;-49
2022/11/11 12:11:35;;;;;;;2.92;1.50;;;25.70;56.70;;;;;;4117631;28;20382;-52
2022/11/11 12:14:09;;;;;;;2.53;1.70;;;25.70;56.70;;;;;;4115477;28;20404;-48
2022/11/11 12:16:55;;;;;;;2.05;1.35;;;25.70;56.70;;;;;;4131815;28;20053;-46
2022/11/11 12:19:30;;;;;;;2.47;1.65;;;25.70;56.70;;;;;;4122617;28;20034;-48
2022/11/11 12:22:20;;;;;;;2.28;1.50;;;25.70;56.80;;;;;;4124774;28;20045;-47
2022/11/11 12:25:08;;;;;;;1.98;1.27;;;25.60;56.70;;;;;;4116710;28;20050;-47
2022/11/11 12:27:30;;;;;;;2.97;1.50;;;25.60;56.70;;;;;;4125125;28;20030;-48
2022/11/11 12:30:01;;;;;;;2.38;1.67;;;25.60;56.80;;;;;;4117084;28;20044;-46
2022/11/11 12:32:30;;;;;;;2.17;1.50;;;25.60;56.80;;;;;;4122286;28;20394;-48
2022/11/11 12:35:17;;;;;;;1.88;1.40;;;25.60;56.80;;;;;;4108637;28;20085;-50
2022/11/11 12:37:57;;;;;;;2.13;1.48;;;25.60;56.90;;;;;;4123823;28;20041;-51
2022/11/11 12:40:35;;;;;;;2.60;1.60;;;25.60;56.90;;;;;;4116789;28;20042;-51
2022/11/11 12:43:16;;;;;;;1.83;1.30;;;25.50;56.80;;;;;;4126579;28;20034;-49
2022/11/11 12:46:07;;;;;;;1.85;1.35;;;25.50;56.90;;;;;;4127020;28;20077;-49
2022/11/11 12:48:48;;;;;;;2.55;1.50;;;25.50;57.60;;;;;;4127763;28;20504;-46
2022/11/11 12:51:49;;;;;;;1.73;1.40;;;25.50;57.00;;;;;;4112203;28;20050;-49
2022/11/11 12:54:14;;;;;;;1.15;1.05;;;25.50;57.00;;;;;;4110737;28;20618;-49
2022/11/11 12:57:02;;;;;;;2.20;1.60;;;25.50;57.00;;;;;;4115951;28;20069;-47
2022/11/11 12:59:27;;;;;;;2.40;1.55;;;25.50;57.00;;;;;;4118090;28;20041;-49
2022/11/11 13:01:50;;;;;;;1.75;1.30;;;25.50;57.10;;;;;;4133808;28;20039;-48
2022/11/11 13:04:28;;;;;;;2.67;1.65;;;25.50;57.00;;;;;;4118793;28;20057;-49
2022/11/11 13:07:06;;;;;;;2.17;1.30;;;25.40;57.00;;;;;;4110795;28;20049;-50
2022/11/11 13:09:43;;;;;;;2.20;1.45;;;25.40;57.00;;;;;;4117783;28;20038;-49
2022/11/11 13:12:24;;;;;;;2.03;1.35;;;25.40;57.00;;;;;;4122530;28;20322;-51
2022/11/11 13:14:49;;;;;;;2.22;1.33;;;25.40;57.10;;;;;;4110540;28;20099;-47
2022/11/11 13:17:14;;;;;;;1.85;1.40;;;25.40;57.10;;;;;;4121153;28;20121;-49
2022/11/11 13:19:40;;;;;;;2.40;1.60;;;25.40;57.20;;;;;;4122313;28;20074;-50
2022/11/11 13:22:25;;;;;;;1.80;1.27;;;25.40;57.10;;;;;;4116065;28;20041;-48
2022/11/11 13:24:51;;;;;;;2.03;1.27;;;25.40;57.20;;;;;;4124697;28;20050;-50
2022/11/11 13:27:22;;;;;;;2.67;1.20;;;25.40;57.20;;;;;;4126031;28;20471;-50
2022/11/11 13:30:01;;;;;;;2.22;1.50;;;25.30;57.10;;;;;;4115534;28;20513;-51
2022/11/11 13:32:36;;;;;;;2.08;1.30;;;25.30;57.20;;;;;;4108850;28;20053;-52
2022/11/11 13:34:59;;;;;;;1.98;1.40;;;25.30;57.20;;;;;;4125409;28;20129;-52
2022/11/11 13:37:28;;;;;;;2.35;1.55;;;25.30;57.20;;;;;;4124168;28;20067;-50
2022/11/11 13:39:51;;;;;;;2.00;1.02;;;25.30;57.30;;;;;;4116293;28;20039;-50
2022/11/11 13:42:26;;;;;;;1.73;1.02;;;25.30;57.30;;;;;;4123335;28;20045;-50
2022/11/11 13:44:56;;;;;;;1.98;1.35;;;25.30;57.30;;;;;;4116620;28;20038;-48
2022/11/11 13:47:32;;;;;;;1.77;1.17;;;25.20;57.20;;;;;;4119574;28;20046;-47
2022/11/11 13:50:04;;;;;;;1.60;1.30;;;25.20;57.20;;;;;;4117476;28;20041;-48
2022/11/11 13:52:36;;;;;;;1.67;1.08;;;25.20;57.30;;;;;;4114207;28;20048;-47
2022/11/11 13:55:03;;;;;;;1.92;1.23;;;25.20;57.30;;;;;;4116095;28;20076;-49
2022/11/11 13:57:30;;;;;;;2.05;1.20;;;25.20;57.40;;;;;;4115578;28;20042;-50
2022/11/11 14:00:03;;;;;;;1.65;1.08;;;25.20;57.40;;;;;;4120581;28;20436;-48
2022/11/11 14:02:35;;;;;;;1.52;1.13;;;25.20;57.40;;;;;;4116455;28;20041;-50
2022/11/11 14:05:01;;;;;;;1.80;1.17;;;25.10;57.40;;;;;;4104319;28;20055;-48
2022/11/11 14:07:48;;;;;;;1.83;1.10;;;25.10;57.40;;;;;;4110602;28;20042;-47
2022/11/11 14:10:19;;;;;;;2.47;1.20;;;25.10;57.40;;;;;;4111169;28;20514;-47